sensor_id;sensor_type;location;lat;lon;timestamp;temperature;humidity
35960;DHT22;22043;50.970;7.192;2023-03-11T00:12:38;4.10;99.90
35960;DHT22;22043;50.970;7.192;2023-03-11T02:03:35;4.10;99.90
35960;DHT22;22043;50.970;7.192;2023-03-11T02:06:06;4.10;99.90
35960;DHT22;22043;50.970;7.192;2023-03-11T02:08:34;4.10;99.90
35960;DHT22;22043;50.970;7.192;2023-03-11T02:11:04;4.10;99.90
35960;DHT22;22043;50.970;7.192;2023-03-11T02:13:32;4.10;99.90
35960;DHT22;22043;50.970;7.192;2023-03-11T02:16:01;4.10;99.90
35960;DHT22;22043;50.970;7.192;2023-03-11T02:18:27;4.10;99.90
35960;DHT22;22043;50.970;7.192;2023-03-11T02:21:04;4.10;99.90
35960;DHT22;22043;50.970;7.192;2023-03-11T02:23:38;4.10;99.90
35960;DHT22;22043;50.970;7.192;2023-03-11T02:26:21;4.10;99.90
35960;DHT22;22043;50.970;7.192;2023-03-11T02:28:51;4.20;99.90
35960;DHT22;22043;50.970;7.192;2023-03-11T02:31:18;4.10;99.90
35960;DHT22;22043;50.970;7.192;2023-03-11T02:33:45;4.10;99.90
35960;DHT22;22043;50.970;7.192;2023-03-11T02:36:35;4.10;99.90
35960;DHT22;22043;50.970;7.192;2023-03-11T02:39:03;4.20;99.90
35960;DHT22;22043;50.970;7.192;2023-03-11T02:41:32;4.10;99.90
35960;DHT22;22043;50.970;7.192;2023-03-11T02:44:00;4.20;99.90
35960;DHT22;22043;50.970;7.192;2023-03-11T02:46:28;4.10;99.90
35960;DHT22;22043;50.970;7.192;2023-03-11T02:48:55;4.10;99.90
35960;DHT22;22043;50.970;7.192;2023-03-11T02:51:21;4.10;99.90
35960;DHT22;22043;50.970;7.192;2023-03-11T02:53:53;4.20;99.90
35960;DHT22;22043;50.970;7.192;2023-03-11T02:56:21;4.10;99.90
35960;DHT22;22043;50.970;7.192;2023-03-11T02:58:47;4.10;99.90
35960;DHT22;22043;50.970;7.192;2023-03-11T03:01:13;4.20;99.90
35960;DHT22;22043;50.970;7.192;2023-03-11T03:03:42;4.20;99.90
35960;DHT22;22043;50.970;7.192;2023-03-11T03:06:08;4.20;99.90
35960;DHT22;22043;50.970;7.192;2023-03-11T03:08:34;4.10;99.90
35960;DHT22;22043;50.970;7.192;2023-03-11T03:11:00;4.20;99.90
35960;DHT22;22043;50.970;7.192;2023-03-11T03:13:26;4.20;99.90
35960;DHT22;22043;50.970;7.192;2023-03-11T03:15:53;4.10;99.90
35960;DHT22;22043;50.970;7.192;2023-03-11T03:18:19;4.10;99.90
35960;DHT22;22043;50.970;7.192;2023-03-11T03:20:45;4.10;99.90
35960;DHT22;22043;50.970;7.192;2023-03-11T03:23:12;4.10;99.90
35960;DHT22;22043;50.970;7.192;2023-03-11T03:25:41;4.00;99.90
35960;DHT22;22043;50.970;7.192;2023-03-11T03:28:09;4.00;99.90
35960;DHT22;22043;50.970;7.192;2023-03-11T03:30:38;4.00;99.90
35960;DHT22;22043;50.970;7.192;2023-03-11T03:33:05;3.90;99.90
35960;DHT22;22043;50.970;7.192;2023-03-11T03:35:32;3.90;99.90
35960;DHT22;22043;50.970;7.192;2023-03-11T03:38:12;3.80;99.90
35960;DHT22;22043;50.970;7.192;2023-03-11T03:40:44;3.90;99.90
35960;DHT22;22043;50.970;7.192;2023-03-11T03:43:10;3.90;99.90
35960;DHT22;22043;50.970;7.192;2023-03-11T03:45:38;3.80;99.90
35960;DHT22;22043;50.970;7.192;2023-03-11T03:48:04;3.80;99.90
35960;DHT22;22043;50.970;7.192;2023-03-11T03:50:33;3.80;99.90
35960;DHT22;22043;50.970;7.192;2023-03-11T03:52:59;3.80;99.90
35960;DHT22;22043;50.970;7.192;2023-03-11T03:55:25;3.80;99.90
35960;DHT22;22043;50.970;7.192;2023-03-11T03:57:52;3.70;99.90
35960;DHT22;22043;50.970;7.192;2023-03-11T04:00:22;3.70;99.90
35960;DHT22;22043;50.970;7.192;2023-03-11T04:02:54;3.70;99.90
35960;DHT22;22043;50.970;7.192;2023-03-11T04:05:27;3.70;99.90
35960;DHT22;22043;50.970;7.192;2023-03-11T04:07:54;3.60;99.90
35960;DHT22;22043;50.970;7.192;2023-03-11T04:10:20;3.60;99.90
35960;DHT22;22043;50.970;7.192;2023-03-11T04:12:47;3.60;99.90
35960;DHT22;22043;50.970;7.192;2023-03-11T04:15:13;3.60;99.90
35960;DHT22;22043;50.970;7.192;2023-03-11T04:17:42;3.50;99.90
35960;DHT22;22043;50.970;7.192;2023-03-11T04:20:08;3.50;99.90
35960;DHT22;22043;50.970;7.192;2023-03-11T04:22:35;3.50;99.90
35960;DHT22;22043;50.970;7.192;2023-03-11T04:25:01;3.50;99.90
35960;DHT22;22043;50.970;7.192;2023-03-11T04:27:29;3.50;99.90
35960;DHT22;22043;50.970;7.192;2023-03-11T04:29:56;3.40;99.90
35960;DHT22;22043;50.970;7.192;2023-03-11T04:32:22;3.50;99.90
35960;DHT22;22043;50.970;7.192;2023-03-11T04:34:48;3.50;99.90
35960;DHT22;22043;50.970;7.192;2023-03-11T04:37:15;3.40;99.90
35960;DHT22;22043;50.970;7.192;2023-03-11T04:39:41;3.40;99.90
35960;DHT22;22043;50.970;7.192;2023-03-11T04:42:07;3.30;99.90
35960;DHT22;22043;50.970;7.192;2023-03-11T04:44:34;3.30;99.90
35960;DHT22;22043;50.970;7.192;2023-03-11T04:47:01;3.30;99.90
35960;DHT22;22043;50.970;7.192;2023-03-11T04:49:27;3.30;99.90
35960;DHT22;22043;50.970;7.192;2023-03-11T04:51:53;3.30;99.90
35960;DHT22;22043;50.970;7.192;2023-03-11T04:54:21;3.30;99.90
35960;DHT22;22043;50.970;7.192;2023-03-11T04:56:47;3.20;99.90
35960;DHT22;22043;50.970;7.192;2023-03-11T04:59:13;3.20;99.90
35960;DHT22;22043;50.970;7.192;2023-03-11T05:01:41;3.20;99.90
35960;DHT22;22043;50.970;7.192;2023-03-11T05:04:07;3.10;99.90
35960;DHT22;22043;50.970;7.192;2023-03-11T05:06:34;3.20;99.90
35960;DHT22;22043;50.970;7.192;2023-03-11T05:09:02;3.10;99.90
35960;DHT22;22043;50.970;7.192;2023-03-11T05:11:32;3.10;99.90
35960;DHT22;22043;50.970;7.192;2023-03-11T05:13:57;3.10;99.90
35960;DHT22;22043;50.970;7.192;2023-03-11T05:16:23;3.10;99.90
35960;DHT22;22043;50.970;7.192;2023-03-11T05:18:49;3.10;99.90
35960;DHT22;22043;50.970;7.192;2023-03-11T05:21:15;3.00;99.90
35960;DHT22;22043;50.970;7.192;2023-03-11T05:23:41;2.90;99.90
35960;DHT22;22043;50.970;7.192;2023-03-11T05:26:07;2.90;99.90
35960;DHT22;22043;50.970;7.192;2023-03-11T05:28:34;2.90;99.90
35960;DHT22;22043;50.970;7.192;2023-03-11T05:31:00;2.90;99.90
35960;DHT22;22043;50.970;7.192;2023-03-11T05:33:28;2.90;99.90
35960;DHT22;22043;50.970;7.192;2023-03-11T05:36:05;2.90;99.90
35960;DHT22;22043;50.970;7.192;2023-03-11T05:38:32;2.80;99.90
35960;DHT22;22043;50.970;7.192;2023-03-11T05:40:57;2.90;99.90
35960;DHT22;22043;50.970;7.192;2023-03-11T05:43:23;2.90;99.90
35960;DHT22;22043;50.970;7.192;2023-03-11T05:45:53;2.90;99.90
35960;DHT22;22043;50.970;7.192;2023-03-11T05:48:19;2.90;99.90
35960;DHT22;22043;50.970;7.192;2023-03-11T05:50:44;2.90;99.90
35960;DHT22;22043;50.970;7.192;2023-03-11T05:53:10;2.90;99.90
35960;DHT22;22043;50.970;7.192;2023-03-11T05:55:36;3.00;99.90
35960;DHT22;22043;50.970;7.192;2023-03-11T05:58:02;2.90;99.90
35960;DHT22;22043;50.970;7.192;2023-03-11T06:00:28;2.90;99.90
35960;DHT22;22043;50.970;7.192;2023-03-11T06:02:55;2.90;99.90
35960;DHT22;22043;50.970;7.192;2023-03-11T06:05:21;2.90;99.90
35960;DHT22;22043;50.970;7.192;2023-03-11T06:07:49;2.90;99.90
35960;DHT22;22043;50.970;7.192;2023-03-11T06:10:15;2.80;99.90
35960;DHT22;22043;50.970;7.192;2023-03-11T06:12:41;2.80;99.90
35960;DHT22;22043;50.970;7.192;2023-03-11T06:15:12;2.80;99.90
35960;DHT22;22043;50.970;7.192;2023-03-11T06:17:39;2.70;99.90
35960;DHT22;22043;50.970;7.192;2023-03-11T06:20:06;2.70;99.90
35960;DHT22;22043;50.970;7.192;2023-03-11T06:22:32;2.70;99.90
35960;DHT22;22043;50.970;7.192;2023-03-11T06:24:58;2.70;99.90
35960;DHT22;22043;50.970;7.192;2023-03-11T06:27:24;2.70;99.90
35960;DHT22;22043;50.970;7.192;2023-03-11T06:29:52;2.70;99.90
35960;DHT22;22043;50.970;7.192;2023-03-11T06:32:19;2.70;99.90
35960;DHT22;22043;50.970;7.192;2023-03-11T06:34:49;2.60;99.90
35960;DHT22;22043;50.970;7.192;2023-03-11T06:37:15;2.70;99.90
35960;DHT22;22043;50.970;7.192;2023-03-11T06:39:40;2.80;99.90
35960;DHT22;22043;50.970;7.192;2023-03-11T06:42:09;2.80;99.90
35960;DHT22;22043;50.970;7.192;2023-03-11T06:44:36;2.90;99.90
35960;DHT22;22043;50.970;7.192;2023-03-11T06:47:02;2.90;99.90
35960;DHT22;22043;50.970;7.192;2023-03-11T06:49:28;3.00;99.90
35960;DHT22;22043;50.970;7.192;2023-03-11T06:51:54;3.00;99.90
35960;DHT22;22043;50.970;7.192;2023-03-11T06:54:19;3.10;99.90
35960;DHT22;22043;50.970;7.192;2023-03-11T06:56:45;3.10;99.90
35960;DHT22;22043;50.970;7.192;2023-03-11T06:59:13;3.10;99.90
35960;DHT22;22043;50.970;7.192;2023-03-11T07:01:39;3.10;99.90
35960;DHT22;22043;50.970;7.192;2023-03-11T07:04:07;3.10;99.90
35960;DHT22;22043;50.970;7.192;2023-03-11T07:06:36;3.10;99.90
35960;DHT22;22043;50.970;7.192;2023-03-11T07:09:10;3.00;99.90
35960;DHT22;22043;50.970;7.192;2023-03-11T07:11:40;3.00;99.90
35960;DHT22;22043;50.970;7.192;2023-03-11T07:14:10;3.00;99.90
35960;DHT22;22043;50.970;7.192;2023-03-11T07:16:39;3.00;99.90
35960;DHT22;22043;50.970;7.192;2023-03-11T07:19:12;3.00;99.90
35960;DHT22;22043;50.970;7.192;2023-03-11T07:21:39;3.00;99.90
35960;DHT22;22043;50.970;7.192;2023-03-11T07:24:04;3.00;99.90
35960;DHT22;22043;50.970;7.192;2023-03-11T07:26:32;3.10;99.90
35960;DHT22;22043;50.970;7.192;2023-03-11T07:28:58;3.00;99.90
35960;DHT22;22043;50.970;7.192;2023-03-11T07:31:26;3.10;99.90
35960;DHT22;22043;50.970;7.192;2023-03-11T07:33:52;3.10;99.90
35960;DHT22;22043;50.970;7.192;2023-03-11T07:36:20;3.10;99.90
35960;DHT22;22043;50.970;7.192;2023-03-11T07:38:46;3.10;99.90
35960;DHT22;22043;50.970;7.192;2023-03-11T07:41:13;3.10;99.90
35960;DHT22;22043;50.970;7.192;2023-03-11T07:43:40;3.20;99.90
35960;DHT22;22043;50.970;7.192;2023-03-11T07:46:10;3.20;99.90
35960;DHT22;22043;50.970;7.192;2023-03-11T07:48:37;3.20;99.90
35960;DHT22;22043;50.970;7.192;2023-03-11T07:53:36;3.20;99.90
35960;DHT22;22043;50.970;7.192;2023-03-11T07:56:02;3.20;99.90
35960;DHT22;22043;50.970;7.192;2023-03-11T07:58:29;3.20;99.90
35960;DHT22;22043;50.970;7.192;2023-03-11T08:00:55;3.30;99.90
35960;DHT22;22043;50.970;7.192;2023-03-11T08:03:24;3.30;99.90
35960;DHT22;22043;50.970;7.192;2023-03-11T08:05:50;3.40;99.90
35960;DHT22;22043;50.970;7.192;2023-03-11T08:08:16;3.30;99.90
35960;DHT22;22043;50.970;7.192;2023-03-11T08:10:42;3.30;99.90
35960;DHT22;22043;50.970;7.192;2023-03-11T08:13:07;3.30;99.90
35960;DHT22;22043;50.970;7.192;2023-03-11T08:15:33;3.40;99.90
35960;DHT22;22043;50.970;7.192;2023-03-11T08:17:59;3.40;99.90
35960;DHT22;22043;50.970;7.192;2023-03-11T08:20:24;3.40;99.90
35960;DHT22;22043;50.970;7.192;2023-03-11T08:22:50;3.40;99.90
35960;DHT22;22043;50.970;7.192;2023-03-11T08:25:16;3.40;99.90
35960;DHT22;22043;50.970;7.192;2023-03-11T08:27:41;3.50;99.90
35960;DHT22;22043;50.970;7.192;2023-03-11T08:30:08;3.50;99.90
35960;DHT22;22043;50.970;7.192;2023-03-11T08:32:34;3.40;99.90
35960;DHT22;22043;50.970;7.192;2023-03-11T08:35:00;3.40;99.90
35960;DHT22;22043;50.970;7.192;2023-03-11T08:37:26;3.40;99.90
35960;DHT22;22043;50.970;7.192;2023-03-11T08:39:51;3.50;99.90
35960;DHT22;22043;50.970;7.192;2023-03-11T08:42:17;3.50;99.90
35960;DHT22;22043;50.970;7.192;2023-03-11T08:44:43;3.50;99.90
35960;DHT22;22043;50.970;7.192;2023-03-11T08:47:08;3.50;99.90
35960;DHT22;22043;50.970;7.192;2023-03-11T08:49:36;3.60;99.90
35960;DHT22;22043;50.970;7.192;2023-03-11T08:52:02;3.60;99.90
35960;DHT22;22043;50.970;7.192;2023-03-11T08:54:30;3.60;99.90
35960;DHT22;22043;50.970;7.192;2023-03-11T08:56:56;3.60;99.90
35960;DHT22;22043;50.970;7.192;2023-03-11T08:59:23;3.70;99.90
35960;DHT22;22043;50.970;7.192;2023-03-11T09:01:48;3.70;99.90
35960;DHT22;22043;50.970;7.192;2023-03-11T09:04:14;3.70;99.90
35960;DHT22;22043;50.970;7.192;2023-03-11T09:06:43;3.80;99.90
35960;DHT22;22043;50.970;7.192;2023-03-11T09:09:10;3.80;99.90
35960;DHT22;22043;50.970;7.192;2023-03-11T09:11:36;3.70;99.90
35960;DHT22;22043;50.970;7.192;2023-03-11T09:14:02;3.70;99.90
35960;DHT22;22043;50.970;7.192;2023-03-11T09:16:28;3.80;99.90
35960;DHT22;22043;50.970;7.192;2023-03-11T09:18:54;3.80;99.90
35960;DHT22;22043;50.970;7.192;2023-03-11T09:21:21;3.90;99.90
35960;DHT22;22043;50.970;7.192;2023-03-11T09:23:47;3.90;99.90
35960;DHT22;22043;50.970;7.192;2023-03-11T09:26:13;3.90;99.90
35960;DHT22;22043;50.970;7.192;2023-03-11T09:28:40;3.90;99.90
35960;DHT22;22043;50.970;7.192;2023-03-11T09:31:06;4.00;99.90
35960;DHT22;22043;50.970;7.192;2023-03-11T09:33:36;4.00;99.90
35960;DHT22;22043;50.970;7.192;2023-03-11T09:36:03;4.10;99.90
35960;DHT22;22043;50.970;7.192;2023-03-11T09:38:28;4.10;99.90
35960;DHT22;22043;50.970;7.192;2023-03-11T09:44:09;4.00;99.90
35960;DHT22;22043;50.970;7.192;2023-03-11T09:49:46;4.20;99.90
35960;DHT22;22043;50.970;7.192;2023-03-11T09:55:54;4.10;99.90
35960;DHT22;22043;50.970;7.192;2023-03-11T09:58:35;4.00;99.90
35960;DHT22;22043;50.970;7.192;2023-03-11T10:01:31;4.00;99.90
35960;DHT22;22043;50.970;7.192;2023-03-11T10:04:00;4.00;99.90
35960;DHT22;22043;50.970;7.192;2023-03-11T10:06:30;4.00;99.90
35960;DHT22;22043;50.970;7.192;2023-03-11T10:11:56;4.20;99.90
35960;DHT22;22043;50.970;7.192;2023-03-11T10:17:41;4.30;99.90
35960;DHT22;22043;50.970;7.192;2023-03-11T10:22:53;4.20;99.90
35960;DHT22;22043;50.970;7.192;2023-03-11T10:25:28;4.20;99.90
35960;DHT22;22043;50.970;7.192;2023-03-11T10:28:00;4.30;99.90
35960;DHT22;22043;50.970;7.192;2023-03-11T10:30:40;4.30;99.90
35960;DHT22;22043;50.970;7.192;2023-03-11T10:33:28;4.40;99.90
35960;DHT22;22043;50.970;7.192;2023-03-11T10:36:03;4.50;99.90
35960;DHT22;22043;50.970;7.192;2023-03-11T10:38:36;4.50;99.90
35960;DHT22;22043;50.970;7.192;2023-03-11T10:41:22;4.50;99.90
35960;DHT22;22043;50.970;7.192;2023-03-11T10:46:52;4.50;99.90
35960;DHT22;22043;50.970;7.192;2023-03-11T10:49:18;4.50;99.90
35960;DHT22;22043;50.970;7.192;2023-03-11T10:51:49;4.50;99.90
35960;DHT22;22043;50.970;7.192;2023-03-11T10:54:27;4.60;99.90
35960;DHT22;22043;50.970;7.192;2023-03-11T10:56:57;4.60;99.90
35960;DHT22;22043;50.970;7.192;2023-03-11T10:59:24;4.60;99.90
35960;DHT22;22043;50.970;7.192;2023-03-11T11:02:00;4.70;99.90
35960;DHT22;22043;50.970;7.192;2023-03-11T11:04:38;4.80;99.90
35960;DHT22;22043;50.970;7.192;2023-03-11T11:07:27;4.90;99.90
35960;DHT22;22043;50.970;7.192;2023-03-11T11:10:23;5.10;99.90
35960;DHT22;22043;50.970;7.192;2023-03-11T11:13:14;5.10;99.90
35960;DHT22;22043;50.970;7.192;2023-03-11T11:16:04;5.10;99.90
35960;DHT22;22043;50.970;7.192;2023-03-11T11:18:33;5.10;99.90
35960;DHT22;22043;50.970;7.192;2023-03-11T11:21:07;5.10;99.90
35960;DHT22;22043;50.970;7.192;2023-03-11T11:23:46;5.10;99.90
35960;DHT22;22043;50.970;7.192;2023-03-11T11:26:22;5.10;99.90
35960;DHT22;22043;50.970;7.192;2023-03-11T11:31:38;5.20;99.90
35960;DHT22;22043;50.970;7.192;2023-03-11T11:34:27;5.30;99.90
35960;DHT22;22043;50.970;7.192;2023-03-11T11:36:55;5.30;99.90
35960;DHT22;22043;50.970;7.192;2023-03-11T11:39:21;5.30;99.90
35960;DHT22;22043;50.970;7.192;2023-03-11T11:41:48;5.20;99.90
35960;DHT22;22043;50.970;7.192;2023-03-11T11:44:18;5.30;99.90
35960;DHT22;22043;50.970;7.192;2023-03-11T11:47:02;5.30;99.90
35960;DHT22;22043;50.970;7.192;2023-03-11T11:49:33;5.30;99.90
35960;DHT22;22043;50.970;7.192;2023-03-11T11:52:15;5.30;99.90
35960;DHT22;22043;50.970;7.192;2023-03-11T11:57:14;5.40;99.90
35960;DHT22;22043;50.970;7.192;2023-03-11T11:59:40;5.40;99.90
35960;DHT22;22043;50.970;7.192;2023-03-11T12:05:08;5.40;99.90
35960;DHT22;22043;50.970;7.192;2023-03-11T12:10:58;5.30;99.90
35960;DHT22;22043;50.970;7.192;2023-03-11T12:16:26;5.40;99.90
35960;DHT22;22043;50.970;7.192;2023-03-11T12:19:01;5.40;99.90
35960;DHT22;22043;50.970;7.192;2023-03-11T12:26:41;5.40;99.90
35960;DHT22;22043;50.970;7.192;2023-03-11T12:29:31;5.50;99.90
35960;DHT22;22043;50.970;7.192;2023-03-11T12:32:00;5.50;99.90
35960;DHT22;22043;50.970;7.192;2023-03-11T12:34:27;5.60;99.90
35960;DHT22;22043;50.970;7.192;2023-03-11T12:36:56;5.60;99.90
35960;DHT22;22043;50.970;7.192;2023-03-11T12:39:28;5.70;99.90
35960;DHT22;22043;50.970;7.192;2023-03-11T12:44:44;5.70;99.90
35960;DHT22;22043;50.970;7.192;2023-03-11T12:49:41;5.70;99.90
35960;DHT22;22043;50.970;7.192;2023-03-11T12:54:35;5.80;99.90
35960;DHT22;22043;50.970;7.192;2023-03-11T13:02:35;6.00;99.90
35960;DHT22;22043;50.970;7.192;2023-03-11T13:08:26;6.00;99.90
35960;DHT22;22043;50.970;7.192;2023-03-11T13:10:56;6.00;99.90
35960;DHT22;22043;50.970;7.192;2023-03-11T13:15:54;6.10;99.90
35960;DHT22;22043;50.970;7.192;2023-03-11T13:18:27;6.10;99.90
35960;DHT22;22043;50.970;7.192;2023-03-11T13:21:02;6.10;99.90
35960;DHT22;22043;50.970;7.192;2023-03-11T13:23:36;6.20;99.90
35960;DHT22;22043;50.970;7.192;2023-03-11T13:26:20;6.20;99.90
35960;DHT22;22043;50.970;7.192;2023-03-11T13:35:00;6.20;99.90
35960;DHT22;22043;50.970;7.192;2023-03-11T13:40:21;6.10;99.90
35960;DHT22;22043;50.970;7.192;2023-03-11T13:42:57;6.10;99.90
35960;DHT22;22043;50.970;7.192;2023-03-11T13:45:29;6.10;99.90
35960;DHT22;22043;50.970;7.192;2023-03-11T13:50:44;5.90;99.90
35960;DHT22;22043;50.970;7.192;2023-03-11T13:53:32;5.80;99.90
35960;DHT22;22043;50.970;7.192;2023-03-11T13:55:59;5.70;99.90
35960;DHT22;22043;50.970;7.192;2023-03-11T13:58:26;5.80;99.90
35960;DHT22;22043;50.970;7.192;2023-03-11T14:00:56;5.70;99.90
35960;DHT22;22043;50.970;7.192;2023-03-11T14:03:24;5.70;99.90
35960;DHT22;22043;50.970;7.192;2023-03-11T14:06:00;5.70;99.90
35960;DHT22;22043;50.970;7.192;2023-03-11T14:08:27;5.70;99.90
35960;DHT22;22043;50.970;7.192;2023-03-11T14:13:27;5.50;99.90
35960;DHT22;22043;50.970;7.192;2023-03-11T14:16:07;5.50;99.90
35960;DHT22;22043;50.970;7.192;2023-03-11T14:18:40;5.50;99.90
35960;DHT22;22043;50.970;7.192;2023-03-11T14:21:13;5.60;99.90
35960;DHT22;22043;50.970;7.192;2023-03-11T14:23:41;5.60;99.90
35960;DHT22;22043;50.970;7.192;2023-03-11T14:26:12;5.70;99.90
35960;DHT22;22043;50.970;7.192;2023-03-11T14:28:44;5.70;99.90
35960;DHT22;22043;50.970;7.192;2023-03-11T14:31:34;5.70;99.90
35960;DHT22;22043;50.970;7.192;2023-03-11T14:34:03;5.80;99.90
35960;DHT22;22043;50.970;7.192;2023-03-11T14:36:38;5.70;99.90
35960;DHT22;22043;50.970;7.192;2023-03-11T14:39:03;5.70;99.90
35960;DHT22;22043;50.970;7.192;2023-03-11T14:41:29;5.70;99.90
35960;DHT22;22043;50.970;7.192;2023-03-11T14:43:55;5.70;99.90
35960;DHT22;22043;50.970;7.192;2023-03-11T14:46:28;5.70;99.90
35960;DHT22;22043;50.970;7.192;2023-03-11T14:48:56;5.70;99.90
35960;DHT22;22043;50.970;7.192;2023-03-11T14:51:26;5.70;99.90
35960;DHT22;22043;50.970;7.192;2023-03-11T14:54:05;5.70;99.90
35960;DHT22;22043;50.970;7.192;2023-03-11T14:56:37;5.70;99.90
35960;DHT22;22043;50.970;7.192;2023-03-11T14:59:12;5.70;99.90
35960;DHT22;22043;50.970;7.192;2023-03-11T15:01:40;5.60;99.90
35960;DHT22;22043;50.970;7.192;2023-03-11T15:04:11;5.70;99.90
35960;DHT22;22043;50.970;7.192;2023-03-11T15:06:40;5.60;99.90
35960;DHT22;22043;50.970;7.192;2023-03-11T15:09:10;5.60;99.90
35960;DHT22;22043;50.970;7.192;2023-03-11T15:11:56;5.60;99.90
35960;DHT22;22043;50.970;7.192;2023-03-11T15:14:31;5.60;99.90
35960;DHT22;22043;50.970;7.192;2023-03-11T15:17:22;5.60;99.90
35960;DHT22;22043;50.970;7.192;2023-03-11T15:19:55;5.60;99.90
35960;DHT22;22043;50.970;7.192;2023-03-11T15:22:25;5.50;99.90
35960;DHT22;22043;50.970;7.192;2023-03-11T15:24:56;5.50;99.90
35960;DHT22;22043;50.970;7.192;2023-03-11T15:29:56;5.50;99.90
35960;DHT22;22043;50.970;7.192;2023-03-11T15:35:23;5.60;99.90
35960;DHT22;22043;50.970;7.192;2023-03-11T15:37:50;5.60;99.90
35960;DHT22;22043;50.970;7.192;2023-03-11T15:40:27;5.60;99.90
35960;DHT22;22043;50.970;7.192;2023-03-11T15:45:37;5.70;99.90
35960;DHT22;22043;50.970;7.192;2023-03-11T15:48:03;5.70;99.90
35960;DHT22;22043;50.970;7.192;2023-03-11T15:50:28;5.70;99.90
35960;DHT22;22043;50.970;7.192;2023-03-11T15:52:56;5.70;99.90
35960;DHT22;22043;50.970;7.192;2023-03-11T15:55:23;5.70;99.90
35960;DHT22;22043;50.970;7.192;2023-03-11T15:57:52;5.70;99.90
35960;DHT22;22043;50.970;7.192;2023-03-11T16:00:21;5.70;99.90
35960;DHT22;22043;50.970;7.192;2023-03-11T16:02:50;5.80;99.90
35960;DHT22;22043;50.970;7.192;2023-03-11T16:05:21;5.80;99.90
35960;DHT22;22043;50.970;7.192;2023-03-11T16:07:47;5.80;99.90
35960;DHT22;22043;50.970;7.192;2023-03-11T16:10:18;5.80;99.90
35960;DHT22;22043;50.970;7.192;2023-03-11T16:12:45;5.90;99.90
35960;DHT22;22043;50.970;7.192;2023-03-11T16:15:25;5.90;99.90
35960;DHT22;22043;50.970;7.192;2023-03-11T16:17:54;5.90;99.90
35960;DHT22;22043;50.970;7.192;2023-03-11T16:20:22;5.90;99.90
35960;DHT22;22043;50.970;7.192;2023-03-11T16:22:49;5.90;99.90
35960;DHT22;22043;50.970;7.192;2023-03-11T16:25:37;5.90;99.90
35960;DHT22;22043;50.970;7.192;2023-03-11T16:28:03;5.80;99.90
35960;DHT22;22043;50.970;7.192;2023-03-11T16:30:30;5.80;99.90
35960;DHT22;22043;50.970;7.192;2023-03-11T16:32:56;5.80;99.60
35960;DHT22;22043;50.970;7.192;2023-03-11T16:35:22;5.80;99.90
35960;DHT22;22043;50.970;7.192;2023-03-11T16:37:48;5.70;99.90
35960;DHT22;22043;50.970;7.192;2023-03-11T16:40:17;5.80;99.90
35960;DHT22;22043;50.970;7.192;2023-03-11T16:42:43;5.80;99.90
35960;DHT22;22043;50.970;7.192;2023-03-11T16:45:14;5.80;99.90
35960;DHT22;22043;50.970;7.192;2023-03-11T16:47:40;5.70;99.90
35960;DHT22;22043;50.970;7.192;2023-03-11T16:50:06;5.70;99.90
35960;DHT22;22043;50.970;7.192;2023-03-11T16:52:32;5.70;99.90
35960;DHT22;22043;50.970;7.192;2023-03-11T16:54:58;5.70;99.90
35960;DHT22;22043;50.970;7.192;2023-03-11T16:57:27;5.70;99.90
35960;DHT22;22043;50.970;7.192;2023-03-11T16:59:53;5.70;99.90
35960;DHT22;22043;50.970;7.192;2023-03-11T17:02:18;5.60;99.90
35960;DHT22;22043;50.970;7.192;2023-03-11T17:04:44;5.60;99.90
35960;DHT22;22043;50.970;7.192;2023-03-11T17:07:10;5.60;99.90
35960;DHT22;22043;50.970;7.192;2023-03-11T17:09:35;5.50;99.90
35960;DHT22;22043;50.970;7.192;2023-03-11T17:12:02;5.50;99.90
35960;DHT22;22043;50.970;7.192;2023-03-11T17:14:31;5.50;99.90
35960;DHT22;22043;50.970;7.192;2023-03-11T17:16:57;5.40;99.90
35960;DHT22;22043;50.970;7.192;2023-03-11T17:19:23;5.40;99.90
35960;DHT22;22043;50.970;7.192;2023-03-11T17:21:49;5.30;99.90
35960;DHT22;22043;50.970;7.192;2023-03-11T17:24:15;5.30;99.90
35960;DHT22;22043;50.970;7.192;2023-03-11T17:26:41;5.30;99.90
35960;DHT22;22043;50.970;7.192;2023-03-11T17:29:07;5.20;99.90
35960;DHT22;22043;50.970;7.192;2023-03-11T17:31:32;5.20;99.90
35960;DHT22;22043;50.970;7.192;2023-03-11T17:33:58;5.10;99.90
35960;DHT22;22043;50.970;7.192;2023-03-11T17:36:24;5.10;99.90
35960;DHT22;22043;50.970;7.192;2023-03-11T17:38:52;5.00;99.90
35960;DHT22;22043;50.970;7.192;2023-03-11T17:41:18;5.00;99.90
35960;DHT22;22043;50.970;7.192;2023-03-11T17:43:44;4.90;99.90
35960;DHT22;22043;50.970;7.192;2023-03-11T17:46:17;4.80;99.90
35960;DHT22;22043;50.970;7.192;2023-03-11T17:48:45;4.70;99.90
35960;DHT22;22043;50.970;7.192;2023-03-11T17:51:13;4.70;99.90
35960;DHT22;22043;50.970;7.192;2023-03-11T17:53:39;4.60;99.90
35960;DHT22;22043;50.970;7.192;2023-03-11T17:56:07;4.50;99.90
35960;DHT22;22043;50.970;7.192;2023-03-11T17:58:33;4.50;99.90
35960;DHT22;22043;50.970;7.192;2023-03-11T18:01:03;4.40;99.90
35960;DHT22;22043;50.970;7.192;2023-03-11T18:03:29;4.40;99.90
35960;DHT22;22043;50.970;7.192;2023-03-11T18:05:57;4.30;99.90
35960;DHT22;22043;50.970;7.192;2023-03-11T18:08:23;4.20;99.90
35960;DHT22;22043;50.970;7.192;2023-03-11T18:10:50;4.20;99.90
35960;DHT22;22043;50.970;7.192;2023-03-11T18:13:16;4.20;99.90
35960;DHT22;22043;50.970;7.192;2023-03-11T18:15:42;4.20;99.90
35960;DHT22;22043;50.970;7.192;2023-03-11T18:18:08;4.20;99.90
35960;DHT22;22043;50.970;7.192;2023-03-11T18:20:36;4.20;99.90
35960;DHT22;22043;50.970;7.192;2023-03-11T18:23:01;4.10;99.90
35960;DHT22;22043;50.970;7.192;2023-03-11T18:25:27;4.10;99.90
35960;DHT22;22043;50.970;7.192;2023-03-11T18:27:53;4.10;99.90
35960;DHT22;22043;50.970;7.192;2023-03-11T18:30:19;4.10;99.90
35960;DHT22;22043;50.970;7.192;2023-03-11T18:32:44;4.10;99.90
35960;DHT22;22043;50.970;7.192;2023-03-11T18:35:10;4.00;99.90
35960;DHT22;22043;50.970;7.192;2023-03-11T18:37:38;4.00;99.90
35960;DHT22;22043;50.970;7.192;2023-03-11T18:40:04;4.00;99.90
35960;DHT22;22043;50.970;7.192;2023-03-11T18:42:32;3.90;99.90
35960;DHT22;22043;50.970;7.192;2023-03-11T18:44:57;3.90;99.90
35960;DHT22;22043;50.970;7.192;2023-03-11T18:47:23;3.90;99.90
35960;DHT22;22043;50.970;7.192;2023-03-11T18:49:48;3.90;99.90
35960;DHT22;22043;50.970;7.192;2023-03-11T18:52:14;3.90;99.90
35960;DHT22;22043;50.970;7.192;2023-03-11T18:54:40;3.90;99.90
35960;DHT22;22043;50.970;7.192;2023-03-11T18:57:06;3.90;99.90
35960;DHT22;22043;50.970;7.192;2023-03-11T18:59:32;3.90;99.90
35960;DHT22;22043;50.970;7.192;2023-03-11T19:01:57;3.90;99.90
35960;DHT22;22043;50.970;7.192;2023-03-11T19:04:23;3.90;99.90
35960;DHT22;22043;50.970;7.192;2023-03-11T19:06:49;3.80;99.90
35960;DHT22;22043;50.970;7.192;2023-03-11T19:09:15;3.80;99.90
35960;DHT22;22043;50.970;7.192;2023-03-11T19:11:43;3.80;99.90
35960;DHT22;22043;50.970;7.192;2023-03-11T19:14:09;3.80;99.90
35960;DHT22;22043;50.970;7.192;2023-03-11T19:16:35;3.80;99.90
35960;DHT22;22043;50.970;7.192;2023-03-11T19:19:01;3.90;99.90
35960;DHT22;22043;50.970;7.192;2023-03-11T19:21:27;3.90;99.90